Maova Express — FGF7258 — position and weather

sailwx.info

Track history (hours):
 
Tides and Currents Weather Stations Pressure Air Temp Water Temp Dewpoint Dewpoint Depression Visibility Wind Speed Wind Dir Waves Ship Positions

Maova Express

Last reported at 2018-Feb-24 11:15 UTC. Time now 2018-Jun-23 15:24 UTC.
Position N 18°07' W 063°21'.
Warning: this ship's position is months out of date.

Length 14 m.

Type: Sailing vessel. MMSI: 227748910.

Date/timePositionNaut miles runAvg speedWind from/ knotsBaromVisibWave heightAir tempDewpointWater temp
2018-Feb-24 11:15N 18°07' W 063°21'2 7.0
2018-Feb-24 10:54N 18°07' W 063°18'3 7.1
2018-Feb-24 10:27N 18°07' W 063°15'4 7.3
2018-Feb-24 09:56N 18°06' W 063°11'3 7.1
2018-Feb-24 09:26N 18°05' W 063°07'2 4.2
2018-Feb-24 09:00N 18°05' W 063°05'0 0.0
2018-Feb-23 20:16N 18°05' W 063°05'0 1.6
2018-Feb-23 19:58N 18°04' W 063°05'0 0.5
2018-Feb-23 19:25N 18°04' W 063°05'  
2018-Feb-17 16:44N 18°04' W 063°05'0 0.0
2018-Feb-17 16:29N 18°04' W 063°05'0 0.4
2018-Feb-17 15:53N 18°04' W 063°06'0 0.0
2018-Feb-16 20:23N 18°04' W 063°06'0 0.0
2018-Feb-16 19:59N 18°04' W 063°06'2 2.9
2018-Feb-16 19:28N 18°05' W 063°07'2 3.8
2018-Feb-16 18:56N 18°05' W 063°09'2 4.5
2018-Feb-16 18:26N 18°02' W 063°08'3 6.1
2018-Feb-16 17:56N 18°01' W 063°06'  
Track history (hours):
 
Tides and Currents Weather Stations Pressure Air Temp Water Temp Dewpoint Dewpoint Depression Visibility Wind Speed Wind Dir Waves Ship Positions

Maova Express

Last reported at 2018-Feb-24 11:15 UTC. Time now 2018-Jun-23 15:24 UTC.
Position N 18°07' W 063°21'.
Warning: this ship's position is months out of date.

Length 14 m.

Type: Sailing vessel. MMSI: 227748910.

Date/timePositionNaut miles runAvg speedWind from/ knotsBaromVisibWave heightAir tempDewpointWater temp
2018-Feb-24 11:15N 18°07' W 063°21'2 7.0
2018-Feb-24 10:54N 18°07' W 063°18'3 7.1
2018-Feb-24 10:27N 18°07' W 063°15'4 7.3
2018-Feb-24 09:56N 18°06' W 063°11'3 7.1
2018-Feb-24 09:26N 18°05' W 063°07'2 4.2
2018-Feb-24 09:00N 18°05' W 063°05'0 0.0
2018-Feb-23 20:16N 18°05' W 063°05'0 1.6
2018-Feb-23 19:58N 18°04' W 063°05'0 0.5
2018-Feb-23 19:25N 18°04' W 063°05'  
2018-Feb-17 16:44N 18°04' W 063°05'0 0.0
2018-Feb-17 16:29N 18°04' W 063°05'0 0.4
2018-Feb-17 15:53N 18°04' W 063°06'0 0.0
2018-Feb-16 20:23N 18°04' W 063°06'0 0.0
2018-Feb-16 19:59N 18°04' W 063°06'2 2.9
2018-Feb-16 19:28N 18°05' W 063°07'2 3.8
2018-Feb-16 18:56N 18°05' W 063°09'2 4.5
2018-Feb-16 18:26N 18°02' W 063°08'3 6.1
2018-Feb-16 17:56N 18°01' W 063°06'  

Dump ship's entire track history